Pagina principale
METAR-TAF:

METAR-TAF

Aeroporti :

Aeroporto di Palma di Maiorca

Palma di Maiorca, Spagna

latitudine: 39-33N, longitudine: 002-44E, altezza: 4 m

Osservazione

Il bollettino è stato emesso 26 minuti fa, alle 00:00 UTC
Vento 4 kt da nord-est
Temperature 15°C
Umidità 88%
Pressione 1017 hPa
Visibilità 10 km o più
nessuna nube inferiore a 1500 m e nessun cumulonembo

METAR: LEPA 240000Z 04004KT CAVOK 15/13 Q1017 NOSIG

Ora: 02:26 (00:26 UTC)

Previsione

Il bollettino è stato emesso 1 ora e 26 minuti fa, alle 23:00 UTC
Previsione valida dal 24 alle 00 UTC al 24 alle 24 UTC
Vento 5 kt da est/nord-est
Visibilità 10 km o più
Poco nuvoloso ad un'altezza di 3000 ft
Evoluzione graduale
dal 24 alle 09 UTC al 24 alle 11 UTC
Vento 11 kt da est/sud-est
Evoluzione graduale
dal 24 alle 17 UTC al 24 alle 19 UTC
Vento 9 kt da nord-est

TAF: LEPA 232300Z 2400/2424 06005KT 9999 FEW030 TX26/2412Z TN15/2406Z BECMG 2409/2411 11011KT BECMG 2417/2419 05009KT

Osservazioni e previsioni meteorologiche di più di 4000 aeroporti (messaggi METAR e TAF).

Le stazioni disponibili sono rappresentate dai dischi gialli e rossi sulla carta.

Puntare il mouse per vedere il nome della stazione.

Clicca sopra per visualizzare le osservazioni e previsioni meteorologiche.

Per cambiare la mappa : fare clic sui pulsanti verdi con una croce nera per ingrandire, il pulsante verde con un trattino per diminuire, o sulla freccia verde per le mappe adiacenti.


METAR-TAF: